Time;durP1;ratioP1;P1;durP2;ratioP2;P2;SDS_P1;SDS_P2;PMS_P1;PMS_P2;Temp;Humidity;BMP_temperature;BMP_pressure;BME280_temperature;BME280_humidity;BME280_pressure;Samples;Min_cycle;Max_cycle;Signal;HPM_P1;HPM_P2
2021/07/02 00:01:23;;;;;;;9.55;6.55;;;;;;;15.35;78.47;100528.22;4927304;28;98001;-70
2021/07/02 00:03:49;;;;;;;11.50;6.88;;;;;;;15.50;78.13;100532.59;4917017;28;113660;-70
2021/07/02 00:06:15;;;;;;;11.10;6.07;;;;;;;15.54;77.92;100520.00;4906008;28;98615;-70
2021/07/02 00:08:42;;;;;;;9.63;6.68;;;;;;;15.41;78.00;100518.88;4884847;28;98018;-70
2021/07/02 00:11:09;;;;;;;7.18;6.15;;;;;;;15.46;77.67;100516.06;4918854;28;97941;-69
2021/07/02 00:13:35;;;;;;;7.90;6.35;;;;;;;15.47;77.77;100518.47;4919093;28;98919;-70
2021/07/02 00:16:01;;;;;;;9.60;6.28;;;;;;;15.36;78.18;100514.31;4919065;28;98411;-70
2021/07/02 00:18:27;;;;;;;8.07;5.88;;;;;;;15.36;78.87;100517.03;4917551;28;127821;-70
2021/07/02 00:20:53;;;;;;;13.15;6.70;;;;;;;15.22;78.78;100514.31;4918524;28;122549;-70
2021/07/02 00:23:19;;;;;;;7.85;5.85;;;;;;;15.38;78.39;100511.31;4917167;28;114024;-69
2021/07/02 00:25:45;;;;;;;9.73;6.45;;;;;;;15.16;79.27;100507.31;4900880;28;98623;-70
2021/07/02 00:28:11;;;;;;;9.20;6.40;;;;;;;15.23;79.12;100506.94;4900806;28;126855;-70
2021/07/02 00:30:37;;;;;;;11.63;7.38;;;;;;;15.14;79.15;100511.47;4898320;28;123116;-70
2021/07/02 00:33:03;;;;;;;11.85;7.95;;;;;;;15.18;79.93;100502.41;4887818;28;127538;-71
2021/07/02 00:35:29;;;;;;;14.13;7.40;;;;;;;15.36;79.18;100511.59;4918301;28;128003;-70
2021/07/02 00:37:55;;;;;;;10.50;7.18;;;;;;;15.20;79.84;100507.53;4921881;28;124959;-70
2021/07/02 00:40:21;;;;;;;9.23;7.05;;;;;;;15.27;80.08;100507.97;4906709;28;123009;-70
2021/07/02 00:42:47;;;;;;;11.48;7.40;;;;;;;15.40;79.51;100515.34;4902236;28;98582;-69
2021/07/02 00:45:13;;;;;;;10.55;7.78;;;;;;;15.18;80.56;100517.91;4901347;28;127859;-70
2021/07/02 00:47:39;;;;;;;8.55;6.53;;;;;;;15.21;80.75;100512.69;4904087;28;110327;-70
2021/07/02 00:50:06;;;;;;;11.57;7.70;;;;;;;15.21;80.34;100509.97;4898026;28;123009;-70
2021/07/02 00:52:32;;;;;;;11.65;7.78;;;;;;;15.30;80.70;100515.53;4903465;28;100927;-70
2021/07/02 00:54:58;;;;;;;10.68;7.57;;;;;;;15.12;81.42;100522.59;4907362;28;126143;-70
2021/07/02 00:57:24;;;;;;;13.63;8.02;;;;;;;15.22;81.03;100508.88;4919277;28;126711;-70
2021/07/02 00:59:50;;;;;;;11.15;7.75;;;;;;;15.04;81.96;100509.69;4903842;28;97808;-69
2021/07/02 01:02:16;;;;;;;11.10;7.93;;;;;;;15.06;81.86;100504.00;4917327;28;111356;-70
2021/07/02 01:04:42;;;;;;;12.98;8.35;;;;;;;15.20;82.02;100502.91;4920556;28;98723;-70
2021/07/02 01:07:11;;;;;;;11.98;8.13;;;;;;;14.97;82.23;100504.66;4920833;28;127865;-70
2021/07/02 01:09:38;;;;;;;13.00;7.85;;;;;;;14.99;82.82;100501.66;4911697;28;98042;-70
2021/07/02 01:12:05;;;;;;;11.98;8.45;;;;;;;14.87;83.27;100506.72;4903209;28;97759;-70
2021/07/02 01:14:31;;;;;;;11.52;8.18;;;;;;;15.10;82.65;100505.00;4885519;28;98124;-70
2021/07/02 01:16:58;;;;;;;11.30;7.63;;;;;;;15.10;82.50;100505.00;4901965;28;126726;-69
2021/07/02 01:19:24;;;;;;;11.07;7.88;;;;;;;14.94;82.52;100499.03;4900401;28;106810;-69
2021/07/02 01:21:54;;;;;;;9.55;7.10;;;;;;;15.12;81.69;100492.72;4903663;28;98600;-70
2021/07/02 01:24:21;;;;;;;10.40;7.43;;;;;;;14.94;82.97;100494.41;4902586;28;99407;-69
2021/07/02 01:26:47;;;;;;;10.73;7.35;;;;;;;14.94;82.45;100488.16;4916426;28;98095;-69
2021/07/02 01:29:13;;;;;;;9.68;7.28;;;;;;;15.03;82.93;100489.09;4903730;28;101960;-69
2021/07/02 01:31:39;;;;;;;10.20;7.43;;;;;;;14.96;83.38;100486.75;4921723;28;125823;-70
2021/07/02 01:34:05;;;;;;;9.88;7.75;;;;;;;15.00;83.01;100489.69;4919706;28;127096;-70
2021/07/02 01:36:31;;;;;;;8.88;7.68;;;;;;;15.04;82.63;100489.91;4921495;28;127870;-70
2021/07/02 01:38:57;;;;;;;9.82;7.30;;;;;;;15.14;82.94;100485.13;4920970;28;122977;-69
2021/07/02 01:41:23;;;;;;;11.13;7.22;;;;;;;14.87;83.43;100487.72;4904181;28;100733;-70
2021/07/02 01:43:49;;;;;;;11.45;7.85;;;;;;;14.83;83.14;100489.41;4918279;28;126934;-69
2021/07/02 01:46:16;;;;;;;10.65;6.82;;;;;;;15.07;83.14;100481.97;4901434;28;117032;-69
2021/07/02 01:48:43;;;;;;;8.98;7.28;;;;;;;15.04;83.24;100484.47;4899677;28;113157;-70
2021/07/02 01:51:09;;;;;;;10.27;7.40;;;;;;;15.04;83.27;100492.59;4902996;28;98979;-69
2021/07/02 01:53:35;;;;;;;9.07;6.97;;;;;;;14.65;84.27;100491.84;4912033;28;108835;-70
2021/07/02 01:56:01;;;;;;;11.50;7.85;;;;;;;14.58;84.97;100493.31;4902338;28;97971;-70
2021/07/02 01:58:27;;;;;;;9.23;7.65;;;;;;;14.92;84.27;100490.34;4901612;28;122598;-70
2021/07/02 02:00:53;;;;;;;9.40;7.53;;;;;;;14.64;84.35;100484.81;4901973;28;101874;-68
2021/07/02 02:03:19;;;;;;;10.35;7.45;;;;;;;14.89;84.08;100486.31;4883365;28;127466;-69
2021/07/02 02:05:45;;;;;;;8.90;6.90;;;;;;;14.90;84.26;100487.16;4900111;28;113254;-71
2021/07/02 02:08:12;;;;;;;8.63;6.85;;;;;;;14.91;83.98;100488.75;4884721;28;112990;-70
2021/07/02 02:10:38;;;;;;;8.60;6.45;;;;;;;15.05;84.05;100486.06;4900654;28;99086;-69
2021/07/02 02:13:04;;;;;;;7.88;6.55;;;;;;;14.98;83.89;100475.63;4892620;28;128223;-69
2021/07/02 02:15:30;;;;;;;8.70;6.82;;;;;;;14.85;83.87;100481.78;4918078;28;108315;-69
2021/07/02 02:17:56;;;;;;;8.30;6.25;;;;;;;14.73;84.72;100485.75;4883643;28;122956;-69
2021/07/02 02:20:22;;;;;;;7.85;6.15;;;;;;;14.79;84.62;100485.69;4912556;28;98195;-71
2021/07/02 02:22:48;;;;;;;7.25;5.30;;;;;;;14.97;84.32;100484.84;4921416;28;126848;-69
2021/07/02 02:25:14;;;;;;;9.00;5.57;;;;;;;14.89;84.32;100480.09;4902383;28;127063;-69
2021/07/02 02:27:40;;;;;;;7.43;5.47;;;;;;;15.03;83.83;100485.56;4915303;28;123894;-69
2021/07/02 02:30:07;;;;;;;5.93;5.10;;;;;;;15.04;83.55;100482.56;4918432;28;127112;-69
2021/07/02 02:32:34;;;;;;;6.10;4.40;;;;;;;14.98;84.21;100490.00;4903006;28;101312;-69
2021/07/02 02:35:01;;;;;;;6.47;5.15;;;;;;;15.13;84.36;100485.41;4901855;28;98292;-70
2021/07/02 02:37:27;;;;;;;6.05;5.07;;;;;;;14.97;84.30;100487.56;4920978;28;102208;-70
2021/07/02 02:39:53;;;;;;;6.45;4.70;;;;;;;15.03;83.69;100483.66;4919197;28;127335;-69
2021/07/02 02:42:19;;;;;;;5.00;4.28;;;;;;;15.07;83.36;100481.97;4921301;28;98636;-69
2021/07/02 02:44:46;;;;;;;4.65;3.92;;;;;;;15.10;83.73;100480.56;4918427;28;127681;-70
2021/07/02 02:47:12;;;;;;;4.00;3.55;;;;;;;15.03;83.88;100486.38;4886655;28;121284;-68
2021/07/02 02:49:38;;;;;;;5.32;3.60;;;;;;;15.09;83.80;100484.38;4885093;28;127617;-69
2021/07/02 02:52:04;;;;;;;5.50;4.22;;;;;;;15.10;84.04;100494.16;4896402;28;127279;-68
2021/07/02 02:54:30;;;;;;;4.60;3.47;;;;;;;14.89;84.23;100485.50;4899039;28;114656;-68
2021/07/02 02:57:07;;;;;;;3.63;3.08;;;;;;;14.94;84.36;100497.09;4883352;28;122474;-68
2021/07/02 02:59:35;;;;;;;3.80;3.13;;;;;;;14.98;84.39;100490.00;4901556;28;99182;-70
2021/07/02 03:02:02;;;;;;;4.93;3.00;;;;;;;15.12;84.12;100491.94;4901467;28;99073;-69
2021/07/02 03:04:28;;;;;;;4.15;3.03;;;;;;;14.93;84.52;100486.53;4900522;28;98014;-70
2021/07/02 03:06:54;;;;;;;3.28;2.60;;;;;;;15.04;84.58;100484.47;4900166;28;109694;-68
2021/07/02 03:09:20;;;;;;;3.75;2.70;;;;;;;15.05;84.74;100491.50;4897644;28;128123;-68
2021/07/02 03:11:50;;;;;;;2.30;2.03;;;;;;;15.04;84.03;100495.31;4883363;28;115724;-70
2021/07/02 03:14:17;;;;;;;2.50;1.83;;;;;;;14.87;84.27;100491.25;4883959;28;98515;-68
2021/07/02 03:16:43;;;;;;;1.95;1.50;;;;;;;15.04;84.48;100495.31;4884011;28;103595;-68
2021/07/02 03:19:09;;;;;;;1.77;1.35;;;;;;;15.12;84.24;100490.03;4900294;28;124632;-70
2021/07/02 03:21:35;;;;;;;2.78;2.05;;;;;;;15.13;83.76;100497.09;4921264;28;101525;-68
2021/07/02 03:24:01;;;;;;;2.33;1.20;;;;;;;15.14;83.77;100487.81;4917677;28;127443;-70
2021/07/02 03:26:28;;;;;;;1.60;1.40;;;;;;;15.16;83.92;100490.22;4919411;28;122137;-70
2021/07/02 03:28:54;;;;;;;1.80;1.20;;;;;;;15.13;84.23;100488.09;4919849;28;98425;-68
2021/07/02 03:31:20;;;;;;;1.52;1.25;;;;;;;15.06;83.47;100498.56;4912056;28;97719;-70
2021/07/02 03:33:46;;;;;;;2.10;0.98;;;;;;;15.03;84.18;100497.25;4900511;28;98499;-70
2021/07/02 03:36:12;;;;;;;1.38;1.10;;;;;;;15.02;84.02;100494.84;4903285;28;97930;-70
2021/07/02 03:38:38;;;;;;;1.95;0.93;;;;;;;14.98;84.41;100502.75;4899806;28;128519;-70
2021/07/02 03:41:04;;;;;;;1.60;0.80;;;;;;;15.10;84.17;100497.66;4900205;28;128416;-70
2021/07/02 03:43:30;;;;;;;1.33;0.98;;;;;;;15.02;84.03;100495.63;4901211;28;98031;-68
2021/07/02 03:45:56;;;;;;;1.40;0.70;;;;;;;15.17;83.73;100497.31;4899348;28;110660;-69
2021/07/02 03:48:22;;;;;;;1.90;1.00;;;;;;;15.12;84.16;100492.72;4908707;28;98624;-69
2021/07/02 03:50:48;;;;;;;1.08;0.70;;;;;;;15.30;84.17;100495.72;4918118;28;103429;-68
2021/07/02 03:53:14;;;;;;;1.30;0.90;;;;;;;15.24;83.18;100500.41;4917762;28;125379;-70
2021/07/02 03:55:40;;;;;;;1.27;0.85;;;;;;;15.34;83.20;100502.16;4900230;28;113419;-70
2021/07/02 03:58:06;;;;;;;1.30;1.02;;;;;;;15.32;83.54;100499.72;4882702;28;124533;-70
2021/07/02 04:00:32;;;;;;;1.85;1.40;;;;;;;15.28;83.50;100509.56;4899774;28;98131;-70
2021/07/02 04:02:58;;;;;;;2.30;1.17;;;;;;;15.35;83.38;100510.00;4900550;28;104576;-68
2021/07/02 04:05:25;;;;;;;2.92;1.30;;;;;;;15.42;83.24;100507.72;4898661;28;98305;-70
2021/07/02 04:07:51;;;;;;;1.95;1.10;;;;;;;15.49;82.79;100511.97;4881693;28;127061;-68
2021/07/02 04:10:17;;;;;;;1.77;1.33;;;;;;;15.29;83.01;100516.63;4913686;28;122149;-70
2021/07/02 04:12:43;;;;;;;1.80;1.25;;;;;;;15.31;83.95;100508.19;4918955;28;127501;-70
2021/07/02 04:15:09;;;;;;;2.17;1.52;;;;;;;15.40;82.97;100504.47;4917061;28;124557;-68
2021/07/02 04:17:37;;;;;;;2.33;1.60;;;;;;;15.34;83.26;100511.13;4918040;28;108619;-68
2021/07/02 04:20:06;;;;;;;1.70;1.58;;;;;;;15.34;83.61;100513.03;4910990;28;98255;-69
2021/07/02 04:22:32;;;;;;;1.98;1.77;;;;;;;15.52;83.27;100512.16;4899878;28;113345;-69
2021/07/02 04:24:58;;;;;;;4.22;1.98;;;;;;;15.38;83.24;100519.47;4900317;28;102464;-68
2021/07/02 04:27:24;;;;;;;3.35;2.03;;;;;;;15.42;83.07;100521.28;4900183;28;100732;-70
2021/07/02 04:29:50;;;;;;;2.13;1.92;;;;;;;15.35;82.99;100525.50;4898839;28;127068;-68
2021/07/02 04:32:17;;;;;;;2.35;1.85;;;;;;;15.46;83.82;100525.03;4897439;28;127424;-68
2021/07/02 04:34:43;;;;;;;3.13;1.65;;;;;;;15.49;83.52;100518.19;4900312;28;97986;-69
2021/07/02 04:37:09;;;;;;;2.03;1.70;;;;;;;15.44;83.07;100527.25;4900232;28;98775;-69
2021/07/02 04:39:38;;;;;;;2.10;1.60;;;;;;;15.42;83.18;100528.63;4881774;28;127678;-69
2021/07/02 04:42:05;;;;;;;2.50;1.63;;;;;;;15.45;83.11;100530.75;4882425;28;98106;-69
2021/07/02 04:44:32;;;;;;;4.13;2.17;;;;;;;15.31;83.79;100528.00;4899763;28;97971;-67
2021/07/02 04:46:58;;;;;;;2.70;1.80;;;;;;;15.44;83.53;100524.53;4900249;28;98096;-67
2021/07/02 04:49:24;;;;;;;2.10;1.90;;;;;;;15.49;83.99;100526.34;4905098;28;126271;-69
2021/07/02 04:51:50;;;;;;;2.30;2.10;;;;;;;15.52;83.52;100528.44;4918669;28;125827;-69
2021/07/02 04:54:16;;;;;;;2.72;1.92;;;;;;;15.56;83.50;100529.50;4912308;28;97829;-67
2021/07/02 04:56:46;;;;;;;2.80;2.30;;;;;;;15.57;83.42;100535.72;4899578;28;127884;-69
2021/07/02 04:59:17;;;;;;;4.28;2.70;;;;;;;15.53;83.82;100532.78;4900025;28;98541;-67
2021/07/02 05:01:43;;;;;;;4.07;3.17;;;;;;;15.49;83.39;100537.22;4900955;28;97975;-68
2021/07/02 05:04:09;;;;;;;4.72;4.00;;;;;;;15.24;84.56;100543.84;4900111;28;101422;-67
2021/07/02 05:06:37;;;;;;;4.90;3.80;;;;;;;15.54;83.95;100541.75;4900646;28;98118;-69
2021/07/02 05:09:04;;;;;;;5.45;4.00;;;;;;;15.56;83.91;100542.25;4897769;28;98487;-67
2021/07/02 05:11:32;;;;;;;5.25;4.20;;;;;;;15.59;83.56;100547.09;4902834;28;97947;-67
2021/07/02 05:13:58;;;;;;;6.72;4.72;;;;;;;15.58;83.92;100551.72;4898753;28;97831;-69
2021/07/02 05:16:24;;;;;;;6.53;5.32;;;;;;;15.44;84.04;100550.88;4897624;28;128100;-69
2021/07/02 05:18:50;;;;;;;6.53;4.97;;;;;;;15.57;84.05;100555.53;4899255;28;128359;-67
2021/07/02 05:21:16;;;;;;;5.22;4.72;;;;;;;15.56;83.92;100558.53;4899395;28;128215;-67
2021/07/02 05:23:42;;;;;;;7.05;4.70;;;;;;;15.53;84.15;100554.53;4901818;28;123158;-67
2021/07/02 05:26:09;;;;;;;5.55;4.63;;;;;;;15.63;84.25;100564.41;4902286;28;127994;-67
2021/07/02 05:28:36;;;;;;;5.35;4.35;;;;;;;15.67;83.87;100560.81;4901140;28;98913;-67
2021/07/02 05:31:02;;;;;;;5.95;4.72;;;;;;;15.69;83.80;100561.34;4903800;28;97940;-68
2021/07/02 05:33:28;;;;;;;6.28;5.22;;;;;;;15.51;84.05;100562.16;4901732;28;122811;-69
2021/07/02 05:35:54;;;;;;;5.75;4.60;;;;;;;15.77;84.31;100562.56;4884047;28;128094;-69
2021/07/02 05:38:20;;;;;;;4.88;4.38;;;;;;;15.81;83.83;100569.00;4869228;28;100394;-69
2021/07/02 05:40:46;;;;;;;5.63;4.30;;;;;;;15.70;83.63;100571.09;4895054;28;125846;-69
2021/07/02 05:43:12;;;;;;;5.63;3.50;;;;;;;15.83;83.65;100571.41;4909792;28;99332;-67
2021/07/02 05:45:40;;;;;;;6.47;4.88;;;;;;;15.68;84.36;100567.88;4888107;28;98411;-67
2021/07/02 05:48:06;;;;;;;4.53;3.70;;;;;;;15.80;84.09;100564.69;4890411;28;98504;-67
2021/07/02 05:50:32;;;;;;;4.93;4.18;;;;;;;15.87;84.14;100561.56;4883538;28;99512;-68
2021/07/02 05:52:58;;;;;;;3.97;3.58;;;;;;;15.86;83.28;100560.75;4918503;28;98046;-68
2021/07/02 05:55:25;;;;;;;5.03;4.13;;;;;;;15.84;83.74;100560.25;4920084;28;101050;-68
2021/07/02 05:57:51;;;;;;;3.80;3.40;;;;;;;15.95;83.59;100563.56;4903306;28;97913;-70
2021/07/02 06:00:18;;;;;;;4.75;3.47;;;;;;;15.84;83.80;100568.41;4921212;28;123348;-69
2021/07/02 06:02:44;;;;;;;4.07;3.60;;;;;;;15.90;83.50;100567.19;4922161;28;98497;-69
2021/07/02 06:05:11;;;;;;;4.25;3.17;;;;;;;15.92;84.13;100567.72;4921137;28;98207;-71
2021/07/02 06:07:49;;;;;;;5.32;3.40;;;;;;;15.98;84.50;100562.16;4896509;28;127550;-71
2021/07/02 06:10:17;;;;;;;3.80;3.20;;;;;;;16.11;83.67;100566.81;4902739;28;98113;-71
2021/07/02 06:12:43;;;;;;;4.53;3.58;;;;;;;16.06;84.40;100567.72;4903299;28;98024;-72
2021/07/02 06:15:11;;;;;;;5.55;3.65;;;;;;;16.02;84.22;100565.91;4901583;28;99162;-71
2021/07/02 06:17:37;;;;;;;6.25;4.20;;;;;;;15.95;84.03;100569.84;4903078;28;98297;-71
2021/07/02 06:20:03;;;;;;;4.63;3.97;;;;;;;16.04;84.15;100566.41;4908424;28;127551;-71
2021/07/02 06:22:30;;;;;;;6.20;4.55;;;;;;;15.98;84.19;100565.69;4909992;28;98209;-69
2021/07/02 06:24:56;;;;;;;7.07;4.68;;;;;;;15.95;84.51;100571.72;4922296;28;98077;-69
2021/07/02 06:27:22;;;;;;;5.97;4.25;;;;;;;15.83;85.05;100564.06;4919450;28;101503;-69
2021/07/02 06:29:48;;;;;;;6.15;4.60;;;;;;;15.97;84.93;100572.25;4920310;28;113639;-72
2021/07/02 06:32:14;;;;;;;5.45;4.85;;;;;;;15.82;85.22;100569.81;4922158;28;97988;-69
2021/07/02 06:34:40;;;;;;;6.40;5.43;;;;;;;16.07;84.85;100573.94;4919879;28;98732;-69
2021/07/02 06:37:06;;;;;;;8.93;6.25;;;;;;;16.12;85.03;100574.69;4918127;28;126012;-69
2021/07/02 06:39:32;;;;;;;11.27;7.72;;;;;;;15.89;85.47;100572.94;4919662;28;128178;-69
2021/07/02 06:41:58;;;;;;;10.73;7.43;;;;;;;16.11;85.11;100574.97;4921451;28;97816;-71
2021/07/02 06:44:24;;;;;;;11.70;8.90;;;;;;;16.16;84.92;100581.13;4920241;28;127155;-69
2021/07/02 06:46:50;;;;;;;14.80;9.95;;;;;;;16.02;85.49;100585.72;4920209;28;127207;-71
2021/07/02 06:49:17;;;;;;;15.57;10.40;;;;;;;16.09;85.07;100580.72;4920177;28;118007;-71
2021/07/02 06:51:43;;;;;;;13.27;9.48;;;;;;;16.03;85.27;100590.06;4903649;28;97884;-71
2021/07/02 06:54:09;;;;;;;13.35;10.52;;;;;;;16.22;85.01;100594.59;4920538;28;122724;-72
2021/07/02 06:56:35;;;;;;;17.17;11.20;;;;;;;16.19;84.96;100590.56;4920288;28;127918;-71
2021/07/02 06:59:01;;;;;;;14.80;11.50;;;;;;;16.34;85.21;100592.19;4918414;28;124739;-71
2021/07/02 07:01:27;;;;;;;16.52;12.73;;;;;;;16.32;84.82;100595.22;4903324;28;98056;-71
2021/07/02 07:03:53;;;;;;;17.50;12.93;;;;;;;16.33;84.88;100598.75;4901958;28;128303;-71
2021/07/02 07:06:19;;;;;;;21.15;14.35;;;;;;;16.38;84.35;100595.91;4921501;28;98304;-72
2021/07/02 07:08:45;;;;;;;20.88;14.52;;;;;;;16.53;84.33;100601.03;4919989;28;128264;-71
2021/07/02 07:11:11;;;;;;;21.88;15.60;;;;;;;16.57;84.79;100601.25;4920617;28;104322;-71
2021/07/02 07:13:38;;;;;;;21.95;15.85;;;;;;;16.56;84.66;100600.44;4918128;28;127761;-71
2021/07/02 07:16:05;;;;;;;26.23;17.13;;;;;;;16.75;84.11;100605.00;4919585;28;98167;-71
2021/07/02 07:18:31;;;;;;;24.15;17.60;;;;;;;16.85;84.01;100610.22;4901992;28;113721;-71
2021/07/02 07:20:57;;;;;;;25.33;17.88;;;;;;;16.87;83.79;100606.06;4919833;28;120936;-71
2021/07/02 07:23:23;;;;;;;27.98;18.95;;;;;;;16.86;83.68;100612.63;4920449;28;97730;-69
2021/07/02 07:25:49;;;;;;;26.90;18.75;;;;;;;16.88;83.63;100612.31;4915968;28;97921;-69
2021/07/02 07:28:16;;;;;;;25.80;18.67;;;;;;;17.02;83.72;100623.19;4899492;28;98009;-71
2021/07/02 07:30:42;;;;;;;28.67;18.73;;;;;;;17.12;83.27;100625.66;4900964;28;97749;-69
2021/07/02 07:33:08;;;;;;;27.27;19.77;;;;;;;17.12;83.62;100622.94;4882576;28;127290;-71
2021/07/02 07:35:40;;;;;;;30.08;20.25;;;;;;;16.91;83.81;100623.41;4900710;28;98694;-71
2021/07/02 07:38:06;;;;;;;29.25;21.20;;;;;;;17.05;83.55;100625.28;4901181;28;98151;-70
2021/07/02 07:40:33;;;;;;;27.70;20.20;;;;;;;17.22;83.26;100625.44;4900416;28;97864;-71
2021/07/02 07:42:59;;;;;;;35.22;23.40;;;;;;;17.12;83.32;100629.19;4900329;28;98298;-70
2021/07/02 07:45:25;;;;;;;35.28;22.45;;;;;;;17.31;82.96;100623.59;4899721;28;120669;-71
2021/07/02 07:47:51;;;;;;;32.72;22.08;;;;;;;17.68;81.32;100621.59;4899743;28;124444;-70
2021/07/02 07:50:22;;;;;;;31.77;22.48;;;;;;;17.97;80.82;100629.34;4899693;28;98401;-70
2021/07/02 07:55:17;;;;;;;33.95;24.00;;;;;;;18.04;81.00;100628.91;4910866;28;98402;-69
2021/07/02 07:57:44;;;;;;;31.27;22.63;;;;;;;18.12;80.12;100623.50;4921187;28;97614;-71
2021/07/02 08:00:10;;;;;;;30.17;22.60;;;;;;;17.98;80.46;100625.50;4920296;28;97952;-70
2021/07/02 08:02:36;;;;;;;32.33;23.40;;;;;;;18.08;80.07;100638.88;4918069;28;114132;-70
2021/07/02 08:05:04;;;;;;;33.25;23.20;;;;;;;18.11;79.89;100627.31;4917767;28;118005;-70
2021/07/02 08:07:40;;;;;;;30.00;21.90;;;;;;;18.04;79.92;100637.91;4902540;28;98076;-72
2021/07/02 08:10:10;;;;;;;30.48;21.48;;;;;;;18.02;80.57;100633.88;4908239;28;97871;-65
2021/07/02 08:12:36;;;;;;;30.05;21.98;;;;;;;17.92;80.94;100643.13;4900088;28;99606;-64
2021/07/02 08:15:03;;;;;;;29.40;21.83;;;;;;;17.99;81.11;100639.94;4900993;28;98793;-71
2021/07/02 08:17:30;;;;;;;29.67;22.98;;;;;;;17.95;80.39;100638.97;4899940;28;119128;-71
2021/07/02 08:19:59;;;;;;;31.83;23.05;;;;;;;18.05;80.52;100644.97;4918304;28;97922;-71
2021/07/02 08:22:26;;;;;;;29.63;21.77;;;;;;;18.50;79.52;100636.63;4916476;28;122520;-65
2021/07/02 08:24:52;;;;;;;33.55;22.48;;;;;;;18.55;79.38;100641.13;4900108;28;98503;-71
2021/07/02 08:27:19;;;;;;;29.88;22.25;;;;;;;18.50;78.81;100642.09;4900225;28;113803;-67
2021/07/02 08:29:45;;;;;;;28.80;21.42;;;;;;;18.64;79.10;100647.44;4897221;28;98372;-64
2021/07/02 08:32:11;;;;;;;32.08;21.05;;;;;;;18.63;78.35;100646.66;4933305;28;101559;-71
2021/07/02 08:34:37;;;;;;;25.50;19.65;;;;;;;18.78;77.87;100647.34;4918349;28;116691;-71
2021/07/02 08:37:03;;;;;;;27.08;20.35;;;;;;;18.70;78.19;100643.47;4924882;28;97900;-65
2021/07/02 08:39:30;;;;;;;27.52;20.08;;;;;;;18.62;78.57;100653.19;4920596;28;99505;-64
2021/07/02 08:41:56;;;;;;;24.58;18.95;;;;;;;18.42;78.85;100651.06;4919654;28;98756;-65
2021/07/02 08:44:22;;;;;;;25.15;17.55;;;;;;;18.53;78.16;100652.38;4917328;28;114763;-71
2021/07/02 08:46:49;;;;;;;21.70;17.20;;;;;;;18.23;78.77;100648.56;4920273;28;97988;-71
2021/07/02 08:49:16;;;;;;;22.67;17.48;;;;;;;18.28;78.14;100659.34;4906480;28;98376;-71
2021/07/02 08:51:42;;;;;;;22.55;17.27;;;;;;;18.44;78.43;100657.00;4916214;28;98346;-71
2021/07/02 08:54:14;;;;;;;24.92;18.70;;;;;;;18.42;79.01;100659.25;4915915;28;127728;-71
2021/07/02 08:56:56;;;;;;;22.67;18.27;;;;;;;18.56;77.79;100665.41;4919233;28;98000;-64
2021/07/02 08:59:26;;;;;;;;;;;;;;;18.84;77.52;100657.00;4922660;28;97809;-65
2021/07/02 09:01:53;;;;;;;21.63;17.48;;;;;;;18.24;77.88;100674.75;4923425;28;98203;-65
2021/07/02 09:04:27;;;;;;;25.13;17.08;;;;;;;18.51;78.34;100665.56;4922858;28;106247;-64
2021/07/02 09:07:12;;;;;;;22.38;17.77;;;;;;;18.47;78.47;100667.31;4922015;28;97751;-65
2021/07/02 09:09:58;;;;;;;22.95;18.25;;;;;;;18.62;77.99;100663.31;4919515;28;99942;-64
2021/07/02 09:12:29;;;;;;;21.15;17.27;;;;;;;18.63;77.47;100663.03;4920840;28;98053;-65
2021/07/02 09:15:07;;;;;;;20.83;17.13;;;;;;;18.75;77.93;100659.72;4922245;28;111113;-65
2021/07/02 09:17:57;;;;;;;23.55;17.90;;;;;;;18.79;77.65;100662.63;4920045;28;97892;-65
2021/07/02 09:20:35;;;;;;;23.10;17.48;;;;;;;18.59;77.31;100669.44;4870150;28;98009;-71
2021/07/02 09:23:06;;;;;;;22.35;17.23;;;;;;;18.52;76.70;100669.88;4902378;28;97941;-71
2021/07/02 09:25:58;;;;;;;23.10;16.98;;;;;;;18.63;76.35;100675.88;4902844;28;98591;-65
2021/07/02 09:28:31;;;;;;;22.17;17.10;;;;;;;18.61;76.44;100680.84;4899067;28;98056;-71
2021/07/02 09:30:57;;;;;;;22.73;17.75;;;;;;;18.59;76.66;100675.69;4902664;28;97653;-71
2021/07/02 09:33:25;;;;;;;22.20;17.60;;;;;;;18.87;76.50;100672.75;4883833;28;127186;-71
2021/07/02 09:35:57;;;;;;;20.13;17.15;;;;;;;19.06;74.59;100670.53;4901184;28;97988;-71
2021/07/02 09:38:35;;;;;;;22.65;16.65;;;;;;;19.41;73.99;100667.81;4903184;28;98907;-65
2021/07/02 09:41:02;;;;;;;17.92;15.77;;;;;;;19.68;72.66;100666.69;4902504;28;97991;-71
2021/07/02 09:43:30;;;;;;;18.85;15.25;;;;;;;20.04;71.57;100668.25;4902154;28;107635;-66
2021/07/02 09:45:58;;;;;;;23.65;15.40;;;;;;;20.65;67.91;100663.38;4906863;28;98664;-65
2021/07/02 09:48:26;;;;;;;17.42;13.93;;;;;;;22.45;63.70;100663.28;4922177;28;97936;-65
2021/07/02 09:50:59;;;;;;;17.27;13.60;;;;;;;23.10;61.67;100663.38;4922359;28;97962;-65
2021/07/02 09:53:29;;;;;;;16.10;12.88;;;;;;;23.37;61.70;100670.84;4921292;28;98429;-65
2021/07/02 09:55:57;;;;;;;16.70;13.32;;;;;;;23.57;61.16;100669.06;4922079;28;98729;-65
2021/07/02 09:58:36;;;;;;;15.57;13.00;;;;;;;24.61;56.35;100678.13;4920052;28;98055;-65
2021/07/02 10:01:03;;;;;;;14.18;12.32;;;;;;;23.83;58.17;100676.09;4904970;28;97783;-71
2021/07/02 10:03:37;;;;;;;14.20;12.20;;;;;;;22.76;60.72;100679.22;4921753;28;115118;-71
2021/07/02 10:06:22;;;;;;;14.00;12.43;;;;;;;21.84;64.21;100683.16;4904289;28;111358;-71
2021/07/02 10:08:48;;;;;;;16.85;13.15;;;;;;;21.05;68.60;100685.69;4919007;28;98425;-71
2021/07/02 10:11:14;;;;;;;18.08;14.38;;;;;;;20.58;68.32;100682.25;4920975;28;98044;-71
2021/07/02 10:13:42;;;;;;;19.48;14.57;;;;;;;20.46;70.14;100687.59;4916615;28;118276;-70
2021/07/02 10:16:10;;;;;;;21.15;15.10;;;;;;;20.38;71.74;100675.53;4900163;28;98461;-71
2021/07/02 10:18:50;;;;;;;17.85;15.07;;;;;;;19.84;73.23;100677.94;4901386;28;110809;-64
2021/07/02 10:21:19;;;;;;;21.30;16.08;;;;;;;22.68;63.55;100675.44;4914510;28;97792;-72
2021/07/02 10:23:47;;;;;;;19.02;15.02;;;;;;;23.85;59.09;100662.78;4921642;28;98094;-65
2021/07/02 10:26:15;;;;;;;18.48;14.98;;;;;;;24.03;59.32;100663.25;4921758;28;98560;-71
2021/07/02 10:28:42;;;;;;;17.42;13.60;;;;;;;25.49;55.88;100665.91;4920387;28;116447;-71
2021/07/02 10:31:10;;;;;;;17.88;13.25;;;;;;;25.71;54.09;100670.69;4919700;28;97879;-72
2021/07/02 10:33:40;;;;;;;17.77;12.88;;;;;;;23.03;60.02;100669.47;4921945;28;99011;-65
2021/07/02 10:36:06;;;;;;;16.92;13.77;;;;;;;22.77;61.41;100667.06;4887716;28;109066;-65
2021/07/02 10:38:43;;;;;;;16.17;14.15;;;;;;;21.90;65.22;100670.84;4902940;28;98656;-65
2021/07/02 10:41:22;;;;;;;16.00;13.25;;;;;;;22.49;64.13;100658.72;4920124;28;109589;-71
2021/07/02 10:44:04;;;;;;;16.38;13.13;;;;;;;22.89;61.21;100660.75;4901058;28;99039;-65
2021/07/02 10:47:01;;;;;;;13.73;12.27;;;;;;;24.02;58.47;100662.47;4902675;28;98483;-65
2021/07/02 10:49:37;;;;;;;11.73;9.15;;;;;;;23.23;58.55;100660.25;4895816;28;98623;-65
2021/07/02 10:52:30;;;;;;;10.43;8.27;;;;;;;23.38;58.55;100652.41;4901985;28;97998;-65
2021/07/02 10:54:56;;;;;;;10.13;8.40;;;;;;;24.00;57.64;100662.00;4902280;28;100174;-71
2021/07/02 10:57:24;;;;;;;9.23;7.93;;;;;;;24.53;55.50;100662.59;4899744;28;116816;-72
2021/07/02 10:59:51;;;;;;;9.73;7.97;;;;;;;25.67;52.40;100658.78;4901912;28;98984;-72
2021/07/02 11:02:21;;;;;;;10.80;7.70;;;;;;;26.07;51.72;100663.88;4901877;28;98254;-72
2021/07/02 11:04:48;;;;;;;10.07;7.55;;;;;;;26.18;49.18;100658.56;4901106;28;98805;-71
2021/07/02 11:07:38;;;;;;;8.55;7.63;;;;;;;25.39;51.42;100662.56;4901718;28;98531;-72
2021/07/02 11:10:05;;;;;;;8.50;7.60;;;;;;;25.34;52.44;100660.06;4901207;28;111796;-65
2021/07/02 11:12:33;;;;;;;10.50;7.22;;;;;;;26.64;48.79;100664.03;4898716;28;97854;-72
2021/07/02 11:15:01;;;;;;;7.25;6.43;;;;;;;26.08;51.35;100662.72;4898574;28;98602;-65
2021/07/02 11:17:43;;;;;;;8.60;6.85;;;;;;;25.31;53.75;100662.75;4912398;28;98780;-71
2021/07/02 11:22:55;;;;;;;8.85;6.50;;;;;;;24.41;52.36;100654.44;4915113;28;98123;-65